sensor_id;sensor_type;location;lat;lon;timestamp;temperature;humidity
70986;DHT22;58645;43.068;25.610;2023-05-10T00:00:01;10.00;99.90
70986;DHT22;58645;43.068;25.610;2023-05-10T00:02:30;10.00;99.90
70986;DHT22;58645;43.068;25.610;2023-05-10T00:04:55;10.00;99.90
70986;DHT22;58645;43.068;25.610;2023-05-10T00:07:21;10.00;99.90
70986;DHT22;58645;43.068;25.610;2023-05-10T00:09:47;10.00;99.90
70986;DHT22;58645;43.068;25.610;2023-05-10T00:12:13;10.00;99.90
70986;DHT22;58645;43.068;25.610;2023-05-10T00:14:38;10.00;99.90
70986;DHT22;58645;43.068;25.610;2023-05-10T00:17:04;9.90;99.90
70986;DHT22;58645;43.068;25.610;2023-05-10T00:19:30;9.90;99.90
70986;DHT22;58645;43.068;25.610;2023-05-10T00:21:56;9.90;99.90
70986;DHT22;58645;43.068;25.610;2023-05-10T00:24:21;9.80;99.90
70986;DHT22;58645;43.068;25.610;2023-05-10T00:26:47;9.80;99.90
70986;DHT22;58645;43.068;25.610;2023-05-10T00:29:13;9.80;99.90
70986;DHT22;58645;43.068;25.610;2023-05-10T00:31:38;9.80;99.90
70986;DHT22;58645;43.068;25.610;2023-05-10T00:34:04;9.80;99.90
70986;DHT22;58645;43.068;25.610;2023-05-10T00:36:30;9.70;99.90
70986;DHT22;58645;43.068;25.610;2023-05-10T00:38:56;9.70;99.90
70986;DHT22;58645;43.068;25.610;2023-05-10T00:41:22;9.70;99.90
70986;DHT22;58645;43.068;25.610;2023-05-10T00:43:48;9.80;99.90
70986;DHT22;58645;43.068;25.610;2023-05-10T00:46:14;9.70;99.90
70986;DHT22;58645;43.068;25.610;2023-05-10T00:48:40;9.70;99.90
70986;DHT22;58645;43.068;25.610;2023-05-10T00:51:06;9.70;99.90
70986;DHT22;58645;43.068;25.610;2023-05-10T00:53:32;9.70;99.90
70986;DHT22;58645;43.068;25.610;2023-05-10T00:56:00;9.60;99.90
70986;DHT22;58645;43.068;25.610;2023-05-10T00:58:25;9.50;99.90
70986;DHT22;58645;43.068;25.610;2023-05-10T01:00:56;9.50;99.90
70986;DHT22;58645;43.068;25.610;2023-05-10T01:03:23;9.40;99.90
70986;DHT22;58645;43.068;25.610;2023-05-10T01:05:49;9.40;99.90
70986;DHT22;58645;43.068;25.610;2023-05-10T01:08:15;9.30;99.90
70986;DHT22;58645;43.068;25.610;2023-05-10T01:10:42;9.30;99.90
70986;DHT22;58645;43.068;25.610;2023-05-10T01:13:08;9.40;99.90
70986;DHT22;58645;43.068;25.610;2023-05-10T01:15:34;9.30;99.90
70986;DHT22;58645;43.068;25.610;2023-05-10T01:18:01;9.20;99.90
70986;DHT22;58645;43.068;25.610;2023-05-10T01:20:35;9.30;99.90
70986;DHT22;58645;43.068;25.610;2023-05-10T01:35:23;9.30;99.90
70986;DHT22;58645;43.068;25.610;2023-05-10T01:38:04;9.20;99.90
70986;DHT22;58645;43.068;25.610;2023-05-10T01:40:42;9.20;99.90
70986;DHT22;58645;43.068;25.610;2023-05-10T01:43:22;9.20;99.90
70986;DHT22;58645;43.068;25.610;2023-05-10T01:46:05;9.10;99.90
70986;DHT22;58645;43.068;25.610;2023-05-10T01:48:41;9.10;99.90
70986;DHT22;58645;43.068;25.610;2023-05-10T01:51:14;9.10;99.90
70986;DHT22;58645;43.068;25.610;2023-05-10T01:53:42;9.10;99.90
70986;DHT22;58645;43.068;25.610;2023-05-10T01:56:09;9.10;99.90
70986;DHT22;58645;43.068;25.610;2023-05-10T01:58:39;9.00;99.90
70986;DHT22;58645;43.068;25.610;2023-05-10T02:01:06;9.00;99.90
70986;DHT22;58645;43.068;25.610;2023-05-10T02:03:35;9.00;99.90
70986;DHT22;58645;43.068;25.610;2023-05-10T02:06:04;9.00;99.90
70986;DHT22;58645;43.068;25.610;2023-05-10T02:08:31;9.00;99.90
70986;DHT22;58645;43.068;25.610;2023-05-10T02:10:58;8.90;99.90
70986;DHT22;58645;43.068;25.610;2023-05-10T02:13:25;8.90;99.90
70986;DHT22;58645;43.068;25.610;2023-05-10T02:15:53;8.80;99.90
70986;DHT22;58645;43.068;25.610;2023-05-10T02:18:21;8.80;99.90
70986;DHT22;58645;43.068;25.610;2023-05-10T02:20:47;8.80;99.90
70986;DHT22;58645;43.068;25.610;2023-05-10T02:23:14;8.80;99.90
70986;DHT22;58645;43.068;25.610;2023-05-10T02:25:43;8.80;99.90
70986;DHT22;58645;43.068;25.610;2023-05-10T02:28:10;8.80;99.90
70986;DHT22;58645;43.068;25.610;2023-05-10T02:30:37;8.80;99.90
70986;DHT22;58645;43.068;25.610;2023-05-10T02:33:04;8.70;99.90
70986;DHT22;58645;43.068;25.610;2023-05-10T02:35:30;8.70;99.90
70986;DHT22;58645;43.068;25.610;2023-05-10T02:37:59;8.60;99.90
70986;DHT22;58645;43.068;25.610;2023-05-10T02:40:25;8.60;99.90
70986;DHT22;58645;43.068;25.610;2023-05-10T02:42:54;8.50;99.90
70986;DHT22;58645;43.068;25.610;2023-05-10T02:45:24;8.50;99.90
70986;DHT22;58645;43.068;25.610;2023-05-10T02:47:52;8.40;99.90
70986;DHT22;58645;43.068;25.610;2023-05-10T02:50:18;8.40;99.90
70986;DHT22;58645;43.068;25.610;2023-05-10T02:52:49;8.40;99.90
70986;DHT22;58645;43.068;25.610;2023-05-10T02:55:17;8.30;99.90
70986;DHT22;58645;43.068;25.610;2023-05-10T02:58:03;8.30;99.90
70986;DHT22;58645;43.068;25.610;2023-05-10T03:00:29;8.30;99.90
70986;DHT22;58645;43.068;25.610;2023-05-10T03:02:55;8.30;99.90
70986;DHT22;58645;43.068;25.610;2023-05-10T03:05:21;8.20;99.90
70986;DHT22;58645;43.068;25.610;2023-05-10T03:07:47;8.20;99.90
70986;DHT22;58645;43.068;25.610;2023-05-10T03:10:13;8.20;99.90
70986;DHT22;58645;43.068;25.610;2023-05-10T03:13:04;8.10;99.90
70986;DHT22;58645;43.068;25.610;2023-05-10T03:15:41;8.10;99.90
70986;DHT22;58645;43.068;25.610;2023-05-10T03:18:12;8.10;99.90
70986;DHT22;58645;43.068;25.610;2023-05-10T03:20:48;8.10;99.90
70986;DHT22;58645;43.068;25.610;2023-05-10T03:23:22;8.10;99.90
70986;DHT22;58645;43.068;25.610;2023-05-10T03:25:52;8.10;99.90
70986;DHT22;58645;43.068;25.610;2023-05-10T03:28:18;8.30;99.90
70986;DHT22;58645;43.068;25.610;2023-05-10T03:30:46;8.10;99.90
70986;DHT22;58645;43.068;25.610;2023-05-10T03:33:12;8.20;99.90
70986;DHT22;58645;43.068;25.610;2023-05-10T03:35:38;8.20;99.90
70986;DHT22;58645;43.068;25.610;2023-05-10T03:38:04;8.20;99.90
70986;DHT22;58645;43.068;25.610;2023-05-10T03:40:30;8.10;99.90
70986;DHT22;58645;43.068;25.610;2023-05-10T03:42:58;8.10;99.90
70986;DHT22;58645;43.068;25.610;2023-05-10T03:45:23;8.20;99.90
70986;DHT22;58645;43.068;25.610;2023-05-10T03:47:50;8.20;99.90
70986;DHT22;58645;43.068;25.610;2023-05-10T03:50:16;8.20;99.90
70986;DHT22;58645;43.068;25.610;2023-05-10T03:52:43;8.20;99.90
70986;DHT22;58645;43.068;25.610;2023-05-10T03:55:10;8.30;99.90
70986;DHT22;58645;43.068;25.610;2023-05-10T03:57:36;8.40;99.90
70986;DHT22;58645;43.068;25.610;2023-05-10T04:00:03;8.50;99.90
70986;DHT22;58645;43.068;25.610;2023-05-10T04:02:28;8.60;99.90
70986;DHT22;58645;43.068;25.610;2023-05-10T04:04:55;8.70;99.90
70986;DHT22;58645;43.068;25.610;2023-05-10T04:07:21;8.90;99.90
70986;DHT22;58645;43.068;25.610;2023-05-10T04:09:47;9.00;99.90
70986;DHT22;58645;43.068;25.610;2023-05-10T04:12:13;9.10;99.90
70986;DHT22;58645;43.068;25.610;2023-05-10T04:14:39;9.20;99.90
70986;DHT22;58645;43.068;25.610;2023-05-10T04:17:04;9.30;99.90
70986;DHT22;58645;43.068;25.610;2023-05-10T04:19:31;9.40;99.90
70986;DHT22;58645;43.068;25.610;2023-05-10T04:21:56;9.40;99.90
70986;DHT22;58645;43.068;25.610;2023-05-10T04:24:23;9.60;99.90
70986;DHT22;58645;43.068;25.610;2023-05-10T04:26:49;9.70;99.90
70986;DHT22;58645;43.068;25.610;2023-05-10T04:29:15;9.90;99.90
70986;DHT22;58645;43.068;25.610;2023-05-10T04:31:40;9.90;99.90
70986;DHT22;58645;43.068;25.610;2023-05-10T04:34:06;9.80;99.90
70986;DHT22;58645;43.068;25.610;2023-05-10T04:36:33;9.80;99.90
70986;DHT22;58645;43.068;25.610;2023-05-10T04:39:01;9.90;99.90
70986;DHT22;58645;43.068;25.610;2023-05-10T04:41:28;10.00;99.90
70986;DHT22;58645;43.068;25.610;2023-05-10T04:43:54;10.20;99.90
70986;DHT22;58645;43.068;25.610;2023-05-10T04:46:22;10.40;99.90
70986;DHT22;58645;43.068;25.610;2023-05-10T04:48:48;10.50;99.90
70986;DHT22;58645;43.068;25.610;2023-05-10T04:51:14;10.70;99.90
70986;DHT22;58645;43.068;25.610;2023-05-10T04:53:40;10.70;99.90
70986;DHT22;58645;43.068;25.610;2023-05-10T04:56:06;10.90;99.90
70986;DHT22;58645;43.068;25.610;2023-05-10T04:58:32;11.00;99.90
70986;DHT22;58645;43.068;25.610;2023-05-10T05:01:06;11.10;99.90
70986;DHT22;58645;43.068;25.610;2023-05-10T05:03:36;11.30;99.90
70986;DHT22;58645;43.068;25.610;2023-05-10T05:06:02;11.40;99.90
70986;DHT22;58645;43.068;25.610;2023-05-10T05:08:28;11.60;99.90
70986;DHT22;58645;43.068;25.610;2023-05-10T05:10:54;11.80;99.90
70986;DHT22;58645;43.068;25.610;2023-05-10T05:13:20;12.00;99.90
70986;DHT22;58645;43.068;25.610;2023-05-10T05:15:47;12.00;99.90
70986;DHT22;58645;43.068;25.610;2023-05-10T05:18:13;12.30;99.90
70986;DHT22;58645;43.068;25.610;2023-05-10T05:20:38;12.40;99.90
70986;DHT22;58645;43.068;25.610;2023-05-10T05:23:07;12.60;99.90
70986;DHT22;58645;43.068;25.610;2023-05-10T05:28:21;12.70;99.90
70986;DHT22;58645;43.068;25.610;2023-05-10T05:30:47;12.80;99.90
70986;DHT22;58645;43.068;25.610;2023-05-10T05:33:13;13.10;99.90
70986;DHT22;58645;43.068;25.610;2023-05-10T05:35:41;13.30;99.90
70986;DHT22;58645;43.068;25.610;2023-05-10T05:38:13;13.50;99.90
70986;DHT22;58645;43.068;25.610;2023-05-10T05:40:38;13.80;99.90
70986;DHT22;58645;43.068;25.610;2023-05-10T05:43:04;14.10;99.90
70986;DHT22;58645;43.068;25.610;2023-05-10T05:45:30;14.30;99.90
70986;DHT22;58645;43.068;25.610;2023-05-10T05:47:56;14.40;97.90
70986;DHT22;58645;43.068;25.610;2023-05-10T05:50:22;14.60;96.70
70986;DHT22;58645;43.068;25.610;2023-05-10T05:52:47;15.00;96.20
70986;DHT22;58645;43.068;25.610;2023-05-10T05:55:13;15.40;89.10
70986;DHT22;58645;43.068;25.610;2023-05-10T05:57:39;15.80;84.90
70986;DHT22;58645;43.068;25.610;2023-05-10T06:00:06;16.10;83.50
70986;DHT22;58645;43.068;25.610;2023-05-10T06:02:31;16.40;78.90
70986;DHT22;58645;43.068;25.610;2023-05-10T06:04:57;17.00;76.20
70986;DHT22;58645;43.068;25.610;2023-05-10T06:07:23;17.70;71.70
70986;DHT22;58645;43.068;25.610;2023-05-10T06:09:49;18.10;67.10
70986;DHT22;58645;43.068;25.610;2023-05-10T06:12:15;18.10;63.50
70986;DHT22;58645;43.068;25.610;2023-05-10T06:14:41;17.80;64.10
70986;DHT22;58645;43.068;25.610;2023-05-10T06:17:07;17.90;65.20
70986;DHT22;58645;43.068;25.610;2023-05-10T06:19:36;18.00;61.90
70986;DHT22;58645;43.068;25.610;2023-05-10T06:22:02;17.60;64.70
70986;DHT22;58645;43.068;25.610;2023-05-10T06:24:28;18.20;63.30
70986;DHT22;58645;43.068;25.610;2023-05-10T06:26:54;18.70;60.40
70986;DHT22;58645;43.068;25.610;2023-05-10T06:29:20;18.50;59.10
70986;DHT22;58645;43.068;25.610;2023-05-10T06:31:46;18.80;59.10
70986;DHT22;58645;43.068;25.610;2023-05-10T06:34:13;19.20;57.00
70986;DHT22;58645;43.068;25.610;2023-05-10T06:36:39;19.50;57.80
70986;DHT22;58645;43.068;25.610;2023-05-10T06:39:06;19.60;56.70
70986;DHT22;58645;43.068;25.610;2023-05-10T06:41:33;19.60;55.00
70986;DHT22;58645;43.068;25.610;2023-05-10T06:43:59;19.80;53.20
70986;DHT22;58645;43.068;25.610;2023-05-10T06:46:25;19.80;52.90
70986;DHT22;58645;43.068;25.610;2023-05-10T06:48:51;20.00;53.80
70986;DHT22;58645;43.068;25.610;2023-05-10T06:51:17;20.10;53.00
70986;DHT22;58645;43.068;25.610;2023-05-10T06:53:43;19.80;52.50
70986;DHT22;58645;43.068;25.610;2023-05-10T06:56:09;19.90;53.70
70986;DHT22;58645;43.068;25.610;2023-05-10T06:58:35;20.40;51.80
70986;DHT22;58645;43.068;25.610;2023-05-10T07:01:05;20.90;52.40
70986;DHT22;58645;43.068;25.610;2023-05-10T07:03:31;19.90;52.10
70986;DHT22;58645;43.068;25.610;2023-05-10T07:06:01;20.10;52.10
70986;DHT22;58645;43.068;25.610;2023-05-10T07:08:32;19.90;52.70
70986;DHT22;58645;43.068;25.610;2023-05-10T07:11:03;19.40;53.40
70986;DHT22;58645;43.068;25.610;2023-05-10T07:13:35;19.70;54.60
70986;DHT22;58645;43.068;25.610;2023-05-10T07:16:05;19.90;53.00
70986;DHT22;58645;43.068;25.610;2023-05-10T07:18:36;20.10;52.60
70986;DHT22;58645;43.068;25.610;2023-05-10T07:21:05;20.10;52.10
70986;DHT22;58645;43.068;25.610;2023-05-10T07:23:38;19.60;51.60
70986;DHT22;58645;43.068;25.610;2023-05-10T07:26:04;19.50;53.70
70986;DHT22;58645;43.068;25.610;2023-05-10T07:28:30;19.80;53.10
70986;DHT22;58645;43.068;25.610;2023-05-10T07:30:57;20.70;52.50
70986;DHT22;58645;43.068;25.610;2023-05-10T07:33:23;20.70;50.50
70986;DHT22;58645;43.068;25.610;2023-05-10T07:35:50;21.10;50.90
70986;DHT22;58645;43.068;25.610;2023-05-10T07:38:16;20.70;50.70
70986;DHT22;58645;43.068;25.610;2023-05-10T07:40:43;21.40;50.30
70986;DHT22;58645;43.068;25.610;2023-05-10T07:43:08;21.40;48.50
70986;DHT22;58645;43.068;25.610;2023-05-10T07:45:35;21.00;49.50
70986;DHT22;58645;43.068;25.610;2023-05-10T07:48:01;21.60;48.80
70986;DHT22;58645;43.068;25.610;2023-05-10T07:50:27;21.60;48.30
70986;DHT22;58645;43.068;25.610;2023-05-10T07:52:53;21.60;48.60
70986;DHT22;58645;43.068;25.610;2023-05-10T07:55:19;22.20;47.80
70986;DHT22;58645;43.068;25.610;2023-05-10T07:57:46;22.60;46.20
70986;DHT22;58645;43.068;25.610;2023-05-10T08:00:12;21.70;45.70
70986;DHT22;58645;43.068;25.610;2023-05-10T08:02:39;22.40;46.90
70986;DHT22;58645;43.068;25.610;2023-05-10T08:05:05;22.90;44.50
70986;DHT22;58645;43.068;25.610;2023-05-10T08:07:31;22.70;44.70
70986;DHT22;58645;43.068;25.610;2023-05-10T08:09:57;22.80;43.60
70986;DHT22;58645;43.068;25.610;2023-05-10T08:12:23;22.90;40.90
70986;DHT22;58645;43.068;25.610;2023-05-10T08:14:49;23.20;41.00
70986;DHT22;58645;43.068;25.610;2023-05-10T08:17:15;23.50;40.00
70986;DHT22;58645;43.068;25.610;2023-05-10T08:19:40;24.00;40.60
70986;DHT22;58645;43.068;25.610;2023-05-10T08:22:06;24.00;40.80
70986;DHT22;58645;43.068;25.610;2023-05-10T08:24:34;24.30;39.60
70986;DHT22;58645;43.068;25.610;2023-05-10T08:27:05;24.70;39.50
70986;DHT22;58645;43.068;25.610;2023-05-10T08:29:31;24.60;39.10
70986;DHT22;58645;43.068;25.610;2023-05-10T08:31:57;25.10;38.80
70986;DHT22;58645;43.068;25.610;2023-05-10T08:34:23;24.80;38.50
70986;DHT22;58645;43.068;25.610;2023-05-10T08:36:48;24.80;38.80
70986;DHT22;58645;43.068;25.610;2023-05-10T08:39:14;24.50;37.90
70986;DHT22;58645;43.068;25.610;2023-05-10T08:41:44;24.80;39.30
70986;DHT22;58645;43.068;25.610;2023-05-10T08:44:10;24.50;37.80
70986;DHT22;58645;43.068;25.610;2023-05-10T08:46:37;23.40;41.50
70986;DHT22;58645;43.068;25.610;2023-05-10T08:49:07;23.60;41.10
70986;DHT22;58645;43.068;25.610;2023-05-10T08:51:36;23.90;40.40
70986;DHT22;58645;43.068;25.610;2023-05-10T08:54:04;24.40;39.90
70986;DHT22;58645;43.068;25.610;2023-05-10T08:56:30;24.00;40.80
70986;DHT22;58645;43.068;25.610;2023-05-10T08:58:57;23.90;39.40
70986;DHT22;58645;43.068;25.610;2023-05-10T09:01:27;24.60;39.40
70986;DHT22;58645;43.068;25.610;2023-05-10T09:03:53;24.60;37.80
70986;DHT22;58645;43.068;25.610;2023-05-10T09:06:19;24.40;39.50
70986;DHT22;58645;43.068;25.610;2023-05-10T09:08:45;23.90;38.40
70986;DHT22;58645;43.068;25.610;2023-05-10T09:11:17;23.90;38.50
70986;DHT22;58645;43.068;25.610;2023-05-10T09:13:43;24.10;38.30
70986;DHT22;58645;43.068;25.610;2023-05-10T09:16:09;22.60;40.40
70986;DHT22;58645;43.068;25.610;2023-05-10T09:18:35;21.80;41.50
70986;DHT22;58645;43.068;25.610;2023-05-10T09:21:01;21.70;41.70
70986;DHT22;58645;43.068;25.610;2023-05-10T09:23:27;21.20;44.30
70986;DHT22;58645;43.068;25.610;2023-05-10T09:26:07;21.10;44.70
70986;DHT22;58645;43.068;25.610;2023-05-10T09:31:20;23.40;40.50
70986;DHT22;58645;43.068;25.610;2023-05-10T09:33:48;22.60;40.10
70986;DHT22;58645;43.068;25.610;2023-05-10T09:36:14;21.80;42.30
70986;DHT22;58645;43.068;25.610;2023-05-10T09:38:51;21.20;44.60
70986;DHT22;58645;43.068;25.610;2023-05-10T09:41:21;20.90;43.70
70986;DHT22;58645;43.068;25.610;2023-05-10T09:44:10;20.50;44.40
70986;DHT22;58645;43.068;25.610;2023-05-10T09:46:36;20.10;44.70
70986;DHT22;58645;43.068;25.610;2023-05-10T09:49:05;20.00;45.80
70986;DHT22;58645;43.068;25.610;2023-05-10T09:51:31;20.60;45.20
70986;DHT22;58645;43.068;25.610;2023-05-10T09:54:16;20.30;45.70
70986;DHT22;58645;43.068;25.610;2023-05-10T09:56:42;20.50;45.00
70986;DHT22;58645;43.068;25.610;2023-05-10T09:59:11;19.80;45.50
70986;DHT22;58645;43.068;25.610;2023-05-10T10:01:38;19.80;44.70
70986;DHT22;58645;43.068;25.610;2023-05-10T10:04:06;20.00;45.80
70986;DHT22;58645;43.068;25.610;2023-05-10T10:06:39;19.50;45.60
70986;DHT22;58645;43.068;25.610;2023-05-10T10:09:06;19.10;47.40
70986;DHT22;58645;43.068;25.610;2023-05-10T10:11:34;18.90;48.10
70986;DHT22;58645;43.068;25.610;2023-05-10T10:14:01;18.90;46.90
70986;DHT22;58645;43.068;25.610;2023-05-10T10:16:29;18.80;47.10
70986;DHT22;58645;43.068;25.610;2023-05-10T10:18:55;18.50;47.90
70986;DHT22;58645;43.068;25.610;2023-05-10T10:21:22;18.60;47.80
70986;DHT22;58645;43.068;25.610;2023-05-10T10:23:48;18.60;47.30
70986;DHT22;58645;43.068;25.610;2023-05-10T10:26:15;19.60;47.50
70986;DHT22;58645;43.068;25.610;2023-05-10T10:31:57;21.60;44.20
70986;DHT22;58645;43.068;25.610;2023-05-10T10:34:28;21.00;42.90
70986;DHT22;58645;43.068;25.610;2023-05-10T10:36:56;20.20;44.90
70986;DHT22;58645;43.068;25.610;2023-05-10T10:39:23;19.80;44.80
70986;DHT22;58645;43.068;25.610;2023-05-10T10:41:52;19.70;46.80
70986;DHT22;58645;43.068;25.610;2023-05-10T10:52:24;19.20;46.70
70986;DHT22;58645;43.068;25.610;2023-05-10T10:55:20;19.40;46.10
70986;DHT22;58645;43.068;25.610;2023-05-10T10:57:55;19.60;45.30
70986;DHT22;58645;43.068;25.610;2023-05-10T11:00:30;19.40;46.10
70986;DHT22;58645;43.068;25.610;2023-05-10T11:03:15;18.70;46.00
70986;DHT22;58645;43.068;25.610;2023-05-10T11:10:38;18.50;48.00
70986;DHT22;58645;43.068;25.610;2023-05-10T11:13:09;18.50;47.30
70986;DHT22;58645;43.068;25.610;2023-05-10T11:15:37;18.60;48.10
70986;DHT22;58645;43.068;25.610;2023-05-10T11:20:50;18.60;48.80
70986;DHT22;58645;43.068;25.610;2023-05-10T11:23:18;18.20;50.90
70986;DHT22;58645;43.068;25.610;2023-05-10T11:25:45;18.20;51.30
70986;DHT22;58645;43.068;25.610;2023-05-10T11:28:16;18.10;49.80
70986;DHT22;58645;43.068;25.610;2023-05-10T11:30:43;18.30;49.70
70986;DHT22;58645;43.068;25.610;2023-05-10T11:33:15;18.50;49.10
70986;DHT22;58645;43.068;25.610;2023-05-10T11:35:41;18.60;49.90
70986;DHT22;58645;43.068;25.610;2023-05-10T11:38:08;18.90;50.30
70986;DHT22;58645;43.068;25.610;2023-05-10T11:40:35;19.50;48.10
70986;DHT22;58645;43.068;25.610;2023-05-10T11:43:01;19.50;47.30
70986;DHT22;58645;43.068;25.610;2023-05-10T11:45:27;19.70;48.10
70986;DHT22;58645;43.068;25.610;2023-05-10T11:47:57;19.80;47.20
70986;DHT22;58645;43.068;25.610;2023-05-10T11:50:23;20.10;47.70
70986;DHT22;58645;43.068;25.610;2023-05-10T11:52:56;20.50;46.50
70986;DHT22;58645;43.068;25.610;2023-05-10T11:55:22;21.10;46.50
70986;DHT22;58645;43.068;25.610;2023-05-10T11:58:00;21.50;44.40
70986;DHT22;58645;43.068;25.610;2023-05-10T12:00:29;21.60;44.50
70986;DHT22;58645;43.068;25.610;2023-05-10T12:02:55;22.10;45.20
70986;DHT22;58645;43.068;25.610;2023-05-10T12:05:20;22.70;43.20
70986;DHT22;58645;43.068;25.610;2023-05-10T12:07:46;22.30;42.40
70986;DHT22;58645;43.068;25.610;2023-05-10T12:10:13;22.40;42.10
70986;DHT22;58645;43.068;25.610;2023-05-10T12:12:45;22.80;41.10
70986;DHT22;58645;43.068;25.610;2023-05-10T12:15:19;22.90;40.70
70986;DHT22;58645;43.068;25.610;2023-05-10T12:17:46;23.30;40.50
70986;DHT22;58645;43.068;25.610;2023-05-10T12:20:16;23.20;39.70
70986;DHT22;58645;43.068;25.610;2023-05-10T12:22:53;23.60;40.60
70986;DHT22;58645;43.068;25.610;2023-05-10T12:25:22;23.60;40.30
70986;DHT22;58645;43.068;25.610;2023-05-10T12:27:53;23.80;40.20
70986;DHT22;58645;43.068;25.610;2023-05-10T12:30:23;23.90;39.50
70986;DHT22;58645;43.068;25.610;2023-05-10T12:32:49;23.70;40.50
70986;DHT22;58645;43.068;25.610;2023-05-10T12:35:15;23.30;41.50
70986;DHT22;58645;43.068;25.610;2023-05-10T12:37:43;22.90;41.90
70986;DHT22;58645;43.068;25.610;2023-05-10T12:40:10;22.00;43.10
70986;DHT22;58645;43.068;25.610;2023-05-10T12:42:39;21.60;44.20
70986;DHT22;58645;43.068;25.610;2023-05-10T12:45:06;21.20;44.60
70986;DHT22;58645;43.068;25.610;2023-05-10T12:47:32;20.90;45.40
70986;DHT22;58645;43.068;25.610;2023-05-10T12:49:59;20.20;46.90
70986;DHT22;58645;43.068;25.610;2023-05-10T12:52:26;19.70;48.90
70986;DHT22;58645;43.068;25.610;2023-05-10T12:54:53;19.60;49.20
70986;DHT22;58645;43.068;25.610;2023-05-10T12:57:20;19.00;48.80
70986;DHT22;58645;43.068;25.610;2023-05-10T12:59:46;18.50;50.00
70986;DHT22;58645;43.068;25.610;2023-05-10T13:02:12;18.20;51.50
70986;DHT22;58645;43.068;25.610;2023-05-10T13:04:38;17.80;52.30
70986;DHT22;58645;43.068;25.610;2023-05-10T13:07:06;17.50;54.10
70986;DHT22;58645;43.068;25.610;2023-05-10T13:09:32;17.70;53.70
70986;DHT22;58645;43.068;25.610;2023-05-10T13:11:58;17.70;54.10
70986;DHT22;58645;43.068;25.610;2023-05-10T13:14:24;17.60;54.00
70986;DHT22;58645;43.068;25.610;2023-05-10T13:16:53;17.60;54.00
70986;DHT22;58645;43.068;25.610;2023-05-10T13:19:19;17.60;54.20
70986;DHT22;58645;43.068;25.610;2023-05-10T13:21:45;17.60;54.70
70986;DHT22;58645;43.068;25.610;2023-05-10T13:24:11;17.30;55.20
70986;DHT22;58645;43.068;25.610;2023-05-10T13:26:39;17.20;55.00
70986;DHT22;58645;43.068;25.610;2023-05-10T13:29:06;17.20;55.00
70986;DHT22;58645;43.068;25.610;2023-05-10T13:31:32;17.10;55.10
70986;DHT22;58645;43.068;25.610;2023-05-10T13:33:58;17.00;55.40
70986;DHT22;58645;43.068;25.610;2023-05-10T13:36:24;16.90;56.10
70986;DHT22;58645;43.068;25.610;2023-05-10T13:38:49;16.80;56.10
70986;DHT22;58645;43.068;25.610;2023-05-10T13:41:15;16.70;56.00
70986;DHT22;58645;43.068;25.610;2023-05-10T13:43:41;16.60;56.40
70986;DHT22;58645;43.068;25.610;2023-05-10T13:46:07;16.50;57.00
70986;DHT22;58645;43.068;25.610;2023-05-10T13:48:32;16.50;57.40
70986;DHT22;58645;43.068;25.610;2023-05-10T13:50:58;16.40;57.40
70986;DHT22;58645;43.068;25.610;2023-05-10T13:53:24;16.50;57.70
70986;DHT22;58645;43.068;25.610;2023-05-10T13:59:02;16.50;58.30
70986;DHT22;58645;43.068;25.610;2023-05-10T14:01:28;16.40;57.50
70986;DHT22;58645;43.068;25.610;2023-05-10T14:03:54;16.40;57.80
70986;DHT22;58645;43.068;25.610;2023-05-10T14:06:20;16.40;58.10
70986;DHT22;58645;43.068;25.610;2023-05-10T14:08:46;16.30;57.80
70986;DHT22;58645;43.068;25.610;2023-05-10T14:11:11;16.30;57.60
70986;DHT22;58645;43.068;25.610;2023-05-10T14:13:38;16.50;57.70
70986;DHT22;58645;43.068;25.610;2023-05-10T14:16:04;16.50;56.80
70986;DHT22;58645;43.068;25.610;2023-05-10T14:18:29;16.60;57.00
70986;DHT22;58645;43.068;25.610;2023-05-10T14:20:56;16.70;57.20
70986;DHT22;58645;43.068;25.610;2023-05-10T14:23:22;16.80;56.40
70986;DHT22;58645;43.068;25.610;2023-05-10T14:25:52;17.00;56.20
70986;DHT22;58645;43.068;25.610;2023-05-10T14:28:17;17.20;55.70
70986;DHT22;58645;43.068;25.610;2023-05-10T14:30:44;17.20;55.10
70986;DHT22;58645;43.068;25.610;2023-05-10T14:33:10;17.40;55.20
70986;DHT22;58645;43.068;25.610;2023-05-10T14:35:36;17.30;55.60
70986;DHT22;58645;43.068;25.610;2023-05-10T14:38:02;17.40;55.00
70986;DHT22;58645;43.068;25.610;2023-05-10T14:40:29;17.40;55.20
70986;DHT22;58645;43.068;25.610;2023-05-10T14:42:55;17.40;54.70
70986;DHT22;58645;43.068;25.610;2023-05-10T14:45:22;17.40;55.00
70986;DHT22;58645;43.068;25.610;2023-05-10T14:47:48;17.50;54.80
70986;DHT22;58645;43.068;25.610;2023-05-10T14:50:15;17.40;54.40
70986;DHT22;58645;43.068;25.610;2023-05-10T14:56:00;17.40;54.50
70986;DHT22;58645;43.068;25.610;2023-05-10T14:58:29;17.30;53.60
70986;DHT22;58645;43.068;25.610;2023-05-10T15:00:56;17.40;53.60
70986;DHT22;58645;43.068;25.610;2023-05-10T15:03:22;17.20;53.40
70986;DHT22;58645;43.068;25.610;2023-05-10T15:05:48;17.10;53.40
70986;DHT22;58645;43.068;25.610;2023-05-10T15:08:13;17.10;53.70
70986;DHT22;58645;43.068;25.610;2023-05-10T15:10:39;17.10;53.90
70986;DHT22;58645;43.068;25.610;2023-05-10T15:13:05;17.20;54.40
70986;DHT22;58645;43.068;25.610;2023-05-10T15:15:31;17.20;54.60
70986;DHT22;58645;43.068;25.610;2023-05-10T15:17:57;17.10;54.50
70986;DHT22;58645;43.068;25.610;2023-05-10T15:20:22;17.20;54.90
70986;DHT22;58645;43.068;25.610;2023-05-10T15:22:48;17.20;54.30
70986;DHT22;58645;43.068;25.610;2023-05-10T15:25:14;17.20;54.30
70986;DHT22;58645;43.068;25.610;2023-05-10T15:27:41;17.20;53.90
70986;DHT22;58645;43.068;25.610;2023-05-10T15:30:09;17.20;54.40
70986;DHT22;58645;43.068;25.610;2023-05-10T15:32:35;17.20;55.00
70986;DHT22;58645;43.068;25.610;2023-05-10T15:35:01;17.20;55.70
70986;DHT22;58645;43.068;25.610;2023-05-10T15:37:28;17.00;56.10
70986;DHT22;58645;43.068;25.610;2023-05-10T15:39:53;17.00;55.70
70986;DHT22;58645;43.068;25.610;2023-05-10T15:42:19;16.90;55.90
70986;DHT22;58645;43.068;25.610;2023-05-10T15:44:45;16.70;56.20
70986;DHT22;58645;43.068;25.610;2023-05-10T15:47:15;16.60;57.30
70986;DHT22;58645;43.068;25.610;2023-05-10T15:49:41;16.50;56.60
70986;DHT22;58645;43.068;25.610;2023-05-10T15:52:06;16.50;57.40
70986;DHT22;58645;43.068;25.610;2023-05-10T15:54:32;16.40;57.20
70986;DHT22;58645;43.068;25.610;2023-05-10T15:56:58;16.40;57.50
70986;DHT22;58645;43.068;25.610;2023-05-10T15:59:24;16.30;57.80
70986;DHT22;58645;43.068;25.610;2023-05-10T16:01:50;16.30;58.30
70986;DHT22;58645;43.068;25.610;2023-05-10T16:04:16;16.30;57.80